sensor_id;sensor_type;location;lat;lon;timestamp;pressure;altitude;pressure_sealevel;temperature
69435;BMP180;56625;54.322;18.582;2022-07-17T00:02:04;101168.60;;;12.20
69435;BMP180;56625;54.322;18.582;2022-07-17T00:04:32;101173.40;;;12.20
69435;BMP180;56625;54.322;18.582;2022-07-17T00:07:00;101173.80;;;12.20
69435;BMP180;56625;54.322;18.582;2022-07-17T00:09:28;101168.80;;;12.20
69435;BMP180;56625;54.322;18.582;2022-07-17T00:11:55;101174.20;;;12.20
69435;BMP180;56625;54.322;18.582;2022-07-17T00:14:23;101169.20;;;12.20
69435;BMP180;56625;54.322;18.582;2022-07-17T00:16:51;101171.20;;;12.20
69435;BMP180;56625;54.322;18.582;2022-07-17T00:19:21;101171.20;;;12.20
69435;BMP180;56625;54.322;18.582;2022-07-17T00:21:49;101171.20;;;12.20
69435;BMP180;56625;54.322;18.582;2022-07-17T00:24:17;101167.40;;;12.18
69435;BMP180;56625;54.322;18.582;2022-07-17T00:26:50;101173.00;;;12.18
69435;BMP180;56625;54.322;18.582;2022-07-17T00:29:19;101178.60;;;12.16
69435;BMP180;56625;54.322;18.582;2022-07-17T00:31:47;101170.20;;;12.20
69435;BMP180;56625;54.322;18.582;2022-07-17T00:34:15;101175.60;;;12.20
69435;BMP180;56625;54.322;18.582;2022-07-17T00:36:43;101180.40;;;12.20
69435;BMP180;56625;54.322;18.582;2022-07-17T00:39:11;101176.20;;;12.20
69435;BMP180;56625;54.322;18.582;2022-07-17T00:41:39;101175.20;;;12.20
69435;BMP180;56625;54.322;18.582;2022-07-17T00:44:11;101173.40;;;12.20
69435;BMP180;56625;54.322;18.582;2022-07-17T00:46:41;101174.00;;;12.20
69435;BMP180;56625;54.322;18.582;2022-07-17T00:49:10;101168.00;;;12.20
69435;BMP180;56625;54.322;18.582;2022-07-17T00:51:38;101173.00;;;12.20
69435;BMP180;56625;54.322;18.582;2022-07-17T00:54:07;101172.20;;;12.20
69435;BMP180;56625;54.322;18.582;2022-07-17T00:56:36;101180.00;;;12.20
69435;BMP180;56625;54.322;18.582;2022-07-17T00:59:06;101177.20;;;12.26
69435;BMP180;56625;54.322;18.582;2022-07-17T01:01:34;101178.40;;;12.30
69435;BMP180;56625;54.322;18.582;2022-07-17T01:04:02;101177.20;;;12.30
69435;BMP180;56625;54.322;18.582;2022-07-17T01:06:30;101176.20;;;12.30
69435;BMP180;56625;54.322;18.582;2022-07-17T01:08:58;101174.40;;;12.40
69435;BMP180;56625;54.322;18.582;2022-07-17T01:11:26;101174.20;;;12.40
69435;BMP180;56625;54.322;18.582;2022-07-17T01:13:55;101170.60;;;12.40
69435;BMP180;56625;54.322;18.582;2022-07-17T01:16:24;101172.00;;;12.50
69435;BMP180;56625;54.322;18.582;2022-07-17T01:18:52;101173.40;;;12.50
69435;BMP180;56625;54.322;18.582;2022-07-17T01:21:21;101177.00;;;12.50
69435;BMP180;56625;54.322;18.582;2022-07-17T01:23:49;101178.00;;;12.60
69435;BMP180;56625;54.322;18.582;2022-07-17T01:26:17;101177.20;;;12.60
69435;BMP180;56625;54.322;18.582;2022-07-17T01:28:46;101171.80;;;12.62
69435;BMP180;56625;54.322;18.582;2022-07-17T01:31:13;101180.40;;;12.70
69435;BMP180;56625;54.322;18.582;2022-07-17T01:33:41;101173.80;;;12.70
69435;BMP180;56625;54.322;18.582;2022-07-17T01:36:09;101176.40;;;12.70
69435;BMP180;56625;54.322;18.582;2022-07-17T01:38:37;101171.40;;;12.80
69435;BMP180;56625;54.322;18.582;2022-07-17T01:41:04;101177.60;;;12.80
69435;BMP180;56625;54.322;18.582;2022-07-17T01:43:32;101174.00;;;12.80
69435;BMP180;56625;54.322;18.582;2022-07-17T01:46:00;101171.00;;;12.80
69435;BMP180;56625;54.322;18.582;2022-07-17T01:48:28;101164.20;;;12.82
69435;BMP180;56625;54.322;18.582;2022-07-17T01:50:57;101161.40;;;12.88
69435;BMP180;56625;54.322;18.582;2022-07-17T01:53:26;101162.00;;;12.90
69435;BMP180;56625;54.322;18.582;2022-07-17T01:55:54;101157.20;;;12.90
69435;BMP180;56625;54.322;18.582;2022-07-17T01:58:22;101161.60;;;12.90
69435;BMP180;56625;54.322;18.582;2022-07-17T02:00:50;101161.20;;;12.90
69435;BMP180;56625;54.322;18.582;2022-07-17T02:03:19;101158.80;;;12.90
69435;BMP180;56625;54.322;18.582;2022-07-17T02:05:48;101159.20;;;12.88
69435;BMP180;56625;54.322;18.582;2022-07-17T02:08:16;101157.00;;;12.82
69435;BMP180;56625;54.322;18.582;2022-07-17T02:10:44;101153.00;;;12.80
69435;BMP180;56625;54.322;18.582;2022-07-17T02:13:12;101158.40;;;12.80
69435;BMP180;56625;54.322;18.582;2022-07-17T02:15:40;101163.60;;;12.80
69435;BMP180;56625;54.322;18.582;2022-07-17T02:18:09;101162.80;;;12.80
69435;BMP180;56625;54.322;18.582;2022-07-17T02:20:37;101157.80;;;12.80
69435;BMP180;56625;54.322;18.582;2022-07-17T02:23:05;101162.80;;;12.80
69435;BMP180;56625;54.322;18.582;2022-07-17T02:25:33;101162.40;;;12.80
69435;BMP180;56625;54.322;18.582;2022-07-17T02:28:00;101166.80;;;12.80
69435;BMP180;56625;54.322;18.582;2022-07-17T02:30:28;101163.80;;;12.76
69435;BMP180;56625;54.322;18.582;2022-07-17T02:32:56;101168.20;;;12.70
69435;BMP180;56625;54.322;18.582;2022-07-17T02:35:24;101171.80;;;12.70
69435;BMP180;56625;54.322;18.582;2022-07-17T02:37:52;101171.20;;;12.72
69435;BMP180;56625;54.322;18.582;2022-07-17T02:40:19;101170.40;;;12.70
69435;BMP180;56625;54.322;18.582;2022-07-17T02:42:47;101178.80;;;12.70
69435;BMP180;56625;54.322;18.582;2022-07-17T02:45:15;101181.20;;;12.70
69435;BMP180;56625;54.322;18.582;2022-07-17T02:47:43;101182.20;;;12.70
69435;BMP180;56625;54.322;18.582;2022-07-17T02:50:11;101183.00;;;12.70
69435;BMP180;56625;54.322;18.582;2022-07-17T02:52:40;101190.80;;;12.62
69435;BMP180;56625;54.322;18.582;2022-07-17T02:55:08;101194.40;;;12.60
69435;BMP180;56625;54.322;18.582;2022-07-17T02:57:37;101199.20;;;12.60
69435;BMP180;56625;54.322;18.582;2022-07-17T03:00:09;101202.80;;;12.60
69435;BMP180;56625;54.322;18.582;2022-07-17T03:02:38;101200.40;;;12.60
69435;BMP180;56625;54.322;18.582;2022-07-17T03:05:06;101201.20;;;12.60
69435;BMP180;56625;54.322;18.582;2022-07-17T03:07:35;101203.00;;;12.60
69435;BMP180;56625;54.322;18.582;2022-07-17T03:10:04;101205.40;;;12.60
69435;BMP180;56625;54.322;18.582;2022-07-17T03:12:32;101208.00;;;12.60
69435;BMP180;56625;54.322;18.582;2022-07-17T03:15:00;101208.20;;;12.70
69435;BMP180;56625;54.322;18.582;2022-07-17T03:17:27;101205.40;;;12.80
69435;BMP180;56625;54.322;18.582;2022-07-17T03:19:56;101197.40;;;13.08
69435;BMP180;56625;54.322;18.582;2022-07-17T03:22:24;101202.20;;;13.30
69435;BMP180;56625;54.322;18.582;2022-07-17T03:24:52;101202.40;;;13.40
69435;BMP180;56625;54.322;18.582;2022-07-17T03:27:19;101202.60;;;13.50
69435;BMP180;56625;54.322;18.582;2022-07-17T03:29:47;101206.20;;;13.60
69435;BMP180;56625;54.322;18.582;2022-07-17T03:32:15;101203.60;;;13.80
69435;BMP180;56625;54.322;18.582;2022-07-17T03:34:44;101208.60;;;13.90
69435;BMP180;56625;54.322;18.582;2022-07-17T03:37:12;101214.20;;;14.10
69435;BMP180;56625;54.322;18.582;2022-07-17T03:39:40;101202.20;;;14.36
69435;BMP180;56625;54.322;18.582;2022-07-17T03:42:08;101205.80;;;14.70
69435;BMP180;56625;54.322;18.582;2022-07-17T03:44:36;101204.40;;;15.04
69435;BMP180;56625;54.322;18.582;2022-07-17T03:47:04;101202.60;;;15.26
69435;BMP180;56625;54.322;18.582;2022-07-17T03:49:32;101213.60;;;15.40
69435;BMP180;56625;54.322;18.582;2022-07-17T03:52:00;101218.40;;;15.44
69435;BMP180;56625;54.322;18.582;2022-07-17T03:54:28;101220.60;;;15.50
69435;BMP180;56625;54.322;18.582;2022-07-17T03:56:55;101216.20;;;15.58
69435;BMP180;56625;54.322;18.582;2022-07-17T03:59:23;101225.80;;;15.60
69435;BMP180;56625;54.322;18.582;2022-07-17T04:01:52;101224.60;;;15.70
69435;BMP180;56625;54.322;18.582;2022-07-17T04:04:21;101224.60;;;15.70
69435;BMP180;56625;54.322;18.582;2022-07-17T04:06:49;101230.60;;;15.80
69435;BMP180;56625;54.322;18.582;2022-07-17T04:09:17;101229.60;;;15.80
69435;BMP180;56625;54.322;18.582;2022-07-17T04:11:45;101232.00;;;15.80
69435;BMP180;56625;54.322;18.582;2022-07-17T04:14:12;101236.40;;;15.80
69435;BMP180;56625;54.322;18.582;2022-07-17T04:16:40;101234.60;;;15.90
69435;BMP180;56625;54.322;18.582;2022-07-17T04:19:08;101233.20;;;15.90
69435;BMP180;56625;54.322;18.582;2022-07-17T04:21:36;101235.60;;;16.00
69435;BMP180;56625;54.322;18.582;2022-07-17T04:24:04;101243.00;;;16.00
69435;BMP180;56625;54.322;18.582;2022-07-17T04:26:32;101246.20;;;16.10
69435;BMP180;56625;54.322;18.582;2022-07-17T04:29:00;101247.80;;;16.10
69435;BMP180;56625;54.322;18.582;2022-07-17T04:31:29;101251.40;;;16.10
69435;BMP180;56625;54.322;18.582;2022-07-17T04:33:58;101249.40;;;16.10
69435;BMP180;56625;54.322;18.582;2022-07-17T04:36:25;101255.20;;;16.18
69435;BMP180;56625;54.322;18.582;2022-07-17T04:38:53;101252.20;;;16.10
69435;BMP180;56625;54.322;18.582;2022-07-17T04:41:21;101253.00;;;16.10
69435;BMP180;56625;54.322;18.582;2022-07-17T04:43:49;101257.00;;;16.10
69435;BMP180;56625;54.322;18.582;2022-07-17T04:46:17;101257.80;;;16.10
69435;BMP180;56625;54.322;18.582;2022-07-17T04:48:45;101263.40;;;16.10
69435;BMP180;56625;54.322;18.582;2022-07-17T04:51:13;101269.60;;;16.10
69435;BMP180;56625;54.322;18.582;2022-07-17T04:53:40;101267.60;;;16.10
69435;BMP180;56625;54.322;18.582;2022-07-17T04:56:08;101272.60;;;16.16
69435;BMP180;56625;54.322;18.582;2022-07-17T04:58:36;101280.40;;;16.20
69435;BMP180;56625;54.322;18.582;2022-07-17T05:01:04;101278.20;;;16.20
69435;BMP180;56625;54.322;18.582;2022-07-17T05:03:33;101284.20;;;16.20
69435;BMP180;56625;54.322;18.582;2022-07-17T05:06:00;101284.60;;;16.30
69435;BMP180;56625;54.322;18.582;2022-07-17T05:08:28;101286.80;;;16.46
69435;BMP180;56625;54.322;18.582;2022-07-17T05:10:56;101291.00;;;16.52
69435;BMP180;56625;54.322;18.582;2022-07-17T05:13:24;101295.40;;;16.54
69435;BMP180;56625;54.322;18.582;2022-07-17T05:15:53;101301.40;;;16.60
69435;BMP180;56625;54.322;18.582;2022-07-17T05:18:21;101301.80;;;16.66
69435;BMP180;56625;54.322;18.582;2022-07-17T05:20:49;101304.00;;;16.70
69435;BMP180;56625;54.322;18.582;2022-07-17T05:23:16;101311.60;;;16.70
69435;BMP180;56625;54.322;18.582;2022-07-17T05:25:44;101315.20;;;16.80
69435;BMP180;56625;54.322;18.582;2022-07-17T05:28:12;101319.40;;;16.90
69435;BMP180;56625;54.322;18.582;2022-07-17T05:30:40;101324.00;;;17.10
69435;BMP180;56625;54.322;18.582;2022-07-17T05:33:08;101326.80;;;17.20
69435;BMP180;56625;54.322;18.582;2022-07-17T05:35:35;101321.80;;;17.24
69435;BMP180;56625;54.322;18.582;2022-07-17T05:38:03;101321.00;;;17.40
69435;BMP180;56625;54.322;18.582;2022-07-17T05:40:33;101321.80;;;17.50
69435;BMP180;56625;54.322;18.582;2022-07-17T05:43:01;101321.80;;;17.60
69435;BMP180;56625;54.322;18.582;2022-07-17T05:45:29;101324.00;;;17.64
69435;BMP180;56625;54.322;18.582;2022-07-17T05:47:56;101331.00;;;17.70
69435;BMP180;56625;54.322;18.582;2022-07-17T05:50:25;101333.20;;;17.80
69435;BMP180;56625;54.322;18.582;2022-07-17T05:52:53;101339.40;;;17.80
69435;BMP180;56625;54.322;18.582;2022-07-17T05:55:20;101343.80;;;17.90
69435;BMP180;56625;54.322;18.582;2022-07-17T05:57:48;101345.20;;;18.00
69435;BMP180;56625;54.322;18.582;2022-07-17T06:00:16;101346.40;;;18.00
69435;BMP180;56625;54.322;18.582;2022-07-17T06:02:45;101349.20;;;18.20
69435;BMP180;56625;54.322;18.582;2022-07-17T06:05:13;101349.80;;;18.18
69435;BMP180;56625;54.322;18.582;2022-07-17T06:07:47;101357.00;;;18.12
69435;BMP180;56625;54.322;18.582;2022-07-17T06:10:14;101362.20;;;18.10
69435;BMP180;56625;54.322;18.582;2022-07-17T06:12:42;101360.80;;;18.12
69435;BMP180;56625;54.322;18.582;2022-07-17T06:15:11;101360.00;;;18.14
69435;BMP180;56625;54.322;18.582;2022-07-17T06:17:39;101364.20;;;18.26
69435;BMP180;56625;54.322;18.582;2022-07-17T06:20:12;101365.20;;;18.30
69435;BMP180;56625;54.322;18.582;2022-07-17T06:22:41;101366.60;;;18.20
69435;BMP180;56625;54.322;18.582;2022-07-17T06:25:11;101371.00;;;18.30
69435;BMP180;56625;54.322;18.582;2022-07-17T06:27:41;101376.40;;;18.20
69435;BMP180;56625;54.322;18.582;2022-07-17T06:30:14;101378.60;;;18.20
69435;BMP180;56625;54.322;18.582;2022-07-17T06:32:42;101382.20;;;18.10
69435;BMP180;56625;54.322;18.582;2022-07-17T06:35:11;101388.00;;;18.16
69435;BMP180;56625;54.322;18.582;2022-07-17T06:37:39;101386.20;;;18.10
69435;BMP180;56625;54.322;18.582;2022-07-17T06:40:07;101390.60;;;18.00
69435;BMP180;56625;54.322;18.582;2022-07-17T06:42:35;101387.80;;;18.00
69435;BMP180;56625;54.322;18.582;2022-07-17T06:45:03;101392.60;;;18.00
69435;BMP180;56625;54.322;18.582;2022-07-17T06:47:31;101398.20;;;18.00
69435;BMP180;56625;54.322;18.582;2022-07-17T06:49:59;101396.00;;;18.08
69435;BMP180;56625;54.322;18.582;2022-07-17T06:52:27;101399.20;;;18.10
69435;BMP180;56625;54.322;18.582;2022-07-17T06:54:57;101394.40;;;18.10
69435;BMP180;56625;54.322;18.582;2022-07-17T06:57:25;101400.80;;;18.20
69435;BMP180;56625;54.322;18.582;2022-07-17T06:59:53;101398.00;;;18.20
69435;BMP180;56625;54.322;18.582;2022-07-17T07:02:21;101400.40;;;18.30
69435;BMP180;56625;54.322;18.582;2022-07-17T07:04:49;101400.80;;;18.40
69435;BMP180;56625;54.322;18.582;2022-07-17T07:07:17;101406.20;;;18.34
69435;BMP180;56625;54.322;18.582;2022-07-17T07:09:45;101402.00;;;18.40
69435;BMP180;56625;54.322;18.582;2022-07-17T07:12:13;101408.60;;;18.50
69435;BMP180;56625;54.322;18.582;2022-07-17T07:14:41;101407.40;;;18.54
69435;BMP180;56625;54.322;18.582;2022-07-17T07:17:10;101413.60;;;18.60
69435;BMP180;56625;54.322;18.582;2022-07-17T07:19:38;101416.00;;;18.60
69435;BMP180;56625;54.322;18.582;2022-07-17T07:22:06;101419.00;;;18.60
69435;BMP180;56625;54.322;18.582;2022-07-17T07:24:34;101421.40;;;18.52
69435;BMP180;56625;54.322;18.582;2022-07-17T07:27:02;101417.80;;;18.60
69435;BMP180;56625;54.322;18.582;2022-07-17T07:29:29;101421.20;;;18.70
69435;BMP180;56625;54.322;18.582;2022-07-17T07:31:57;101419.20;;;18.80
69435;BMP180;56625;54.322;18.582;2022-07-17T07:34:25;101424.40;;;18.90
69435;BMP180;56625;54.322;18.582;2022-07-17T07:36:53;101424.20;;;19.00
69435;BMP180;56625;54.322;18.582;2022-07-17T07:39:21;101426.60;;;19.14
69435;BMP180;56625;54.322;18.582;2022-07-17T07:41:49;101424.40;;;19.18
69435;BMP180;56625;54.322;18.582;2022-07-17T07:44:17;101424.80;;;19.10
69435;BMP180;56625;54.322;18.582;2022-07-17T07:46:58;101422.60;;;19.20
69435;BMP180;56625;54.322;18.582;2022-07-17T07:49:26;101423.80;;;19.30
69435;BMP180;56625;54.322;18.582;2022-07-17T07:51:55;101426.00;;;19.38
69435;BMP180;56625;54.322;18.582;2022-07-17T07:54:31;101427.60;;;19.50
69435;BMP180;56625;54.322;18.582;2022-07-17T07:57:00;101428.40;;;19.60
69435;BMP180;56625;54.322;18.582;2022-07-17T07:59:29;101430.00;;;19.50
69435;BMP180;56625;54.322;18.582;2022-07-17T08:02:01;101430.00;;;19.50
69435;BMP180;56625;54.322;18.582;2022-07-17T08:04:30;101433.80;;;19.60
69435;BMP180;56625;54.322;18.582;2022-07-17T08:06:58;101428.80;;;19.50
69435;BMP180;56625;54.322;18.582;2022-07-17T08:09:26;101429.80;;;19.62
69435;BMP180;56625;54.322;18.582;2022-07-17T08:11:54;101442.80;;;19.80
69435;BMP180;56625;54.322;18.582;2022-07-17T08:14:22;101437.60;;;20.00
69435;BMP180;56625;54.322;18.582;2022-07-17T08:16:50;101437.40;;;20.20
69435;BMP180;56625;54.322;18.582;2022-07-17T08:19:18;101447.60;;;20.30
69435;BMP180;56625;54.322;18.582;2022-07-17T08:21:46;101440.80;;;20.30
69435;BMP180;56625;54.322;18.582;2022-07-17T08:24:14;101443.00;;;20.50
69435;BMP180;56625;54.322;18.582;2022-07-17T08:26:43;101443.20;;;20.60
69435;BMP180;56625;54.322;18.582;2022-07-17T08:29:11;101443.40;;;20.50
69435;BMP180;56625;54.322;18.582;2022-07-17T08:31:38;101448.40;;;20.40
69435;BMP180;56625;54.322;18.582;2022-07-17T08:34:06;101444.60;;;20.40
69435;BMP180;56625;54.322;18.582;2022-07-17T08:36:34;101446.00;;;20.50
69435;BMP180;56625;54.322;18.582;2022-07-17T08:39:03;101446.00;;;20.70
69435;BMP180;56625;54.322;18.582;2022-07-17T08:41:32;101449.20;;;20.78
69435;BMP180;56625;54.322;18.582;2022-07-17T08:44:06;101450.40;;;20.60
69435;BMP180;56625;54.322;18.582;2022-07-17T08:46:39;101451.60;;;20.70
69435;BMP180;56625;54.322;18.582;2022-07-17T08:49:07;101451.80;;;20.80
69435;BMP180;56625;54.322;18.582;2022-07-17T08:51:36;101446.20;;;20.88
69435;BMP180;56625;54.322;18.582;2022-07-17T08:54:12;101447.40;;;21.10
69435;BMP180;56625;54.322;18.582;2022-07-17T08:56:41;101444.40;;;21.00
69435;BMP180;56625;54.322;18.582;2022-07-17T08:59:10;101456.60;;;20.90
69435;BMP180;56625;54.322;18.582;2022-07-17T09:01:38;101449.80;;;20.90
69435;BMP180;56625;54.322;18.582;2022-07-17T09:04:06;101440.20;;;20.90
69435;BMP180;56625;54.322;18.582;2022-07-17T09:06:36;101445.40;;;21.00
69435;BMP180;56625;54.322;18.582;2022-07-17T09:09:13;101449.20;;;21.20
69435;BMP180;56625;54.322;18.582;2022-07-17T09:11:47;101445.60;;;20.90
69435;BMP180;56625;54.322;18.582;2022-07-17T09:14:18;101456.20;;;20.60
69435;BMP180;56625;54.322;18.582;2022-07-17T09:16:58;101465.00;;;20.50
69435;BMP180;56625;54.322;18.582;2022-07-17T09:19:33;101468.40;;;20.70
69435;BMP180;56625;54.322;18.582;2022-07-17T09:22:22;101469.60;;;20.90
69435;BMP180;56625;54.322;18.582;2022-07-17T09:24:57;101462.80;;;21.00
69435;BMP180;56625;54.322;18.582;2022-07-17T09:27:29;101453.80;;;21.10
69435;BMP180;56625;54.322;18.582;2022-07-17T09:30:08;101456.80;;;21.20
69435;BMP180;56625;54.322;18.582;2022-07-17T09:32:41;101455.80;;;21.30
69435;BMP180;56625;54.322;18.582;2022-07-17T09:35:11;101457.20;;;21.50
69435;BMP180;56625;54.322;18.582;2022-07-17T09:37:38;101454.40;;;21.50
69435;BMP180;56625;54.322;18.582;2022-07-17T09:40:12;101465.00;;;21.40
69435;BMP180;56625;54.322;18.582;2022-07-17T09:42:59;101464.80;;;20.90
69435;BMP180;56625;54.322;18.582;2022-07-17T09:45:27;101464.00;;;20.90
69435;BMP180;56625;54.322;18.582;2022-07-17T09:47:54;101466.20;;;20.90
69435;BMP180;56625;54.322;18.582;2022-07-17T09:50:24;101460.20;;;20.98
69435;BMP180;56625;54.322;18.582;2022-07-17T09:52:57;101463.20;;;21.30
69435;BMP180;56625;54.322;18.582;2022-07-17T09:55:30;101469.00;;;21.50
69435;BMP180;56625;54.322;18.582;2022-07-17T09:58:19;101468.00;;;21.40
69435;BMP180;56625;54.322;18.582;2022-07-17T10:00:49;101469.80;;;21.18
69435;BMP180;56625;54.322;18.582;2022-07-17T10:03:21;101465.80;;;21.04
69435;BMP180;56625;54.322;18.582;2022-07-17T10:05:49;101466.00;;;20.78
69435;BMP180;56625;54.322;18.582;2022-07-17T10:08:18;101469.60;;;20.50
69435;BMP180;56625;54.322;18.582;2022-07-17T10:10:47;101471.60;;;20.50
69435;BMP180;56625;54.322;18.582;2022-07-17T10:13:15;101470.00;;;20.80
69435;BMP180;56625;54.322;18.582;2022-07-17T10:15:44;101465.80;;;21.16
69435;BMP180;56625;54.322;18.582;2022-07-17T10:18:12;101473.20;;;21.48
69435;BMP180;56625;54.322;18.582;2022-07-17T10:20:40;101489.60;;;21.04
69435;BMP180;56625;54.322;18.582;2022-07-17T10:23:13;101491.60;;;20.48
69435;BMP180;56625;54.322;18.582;2022-07-17T10:25:41;101499.80;;;20.10
69435;BMP180;56625;54.322;18.582;2022-07-17T10:28:10;101504.40;;;19.82
69435;BMP180;56625;54.322;18.582;2022-07-17T10:30:42;101499.40;;;19.86
69435;BMP180;56625;54.322;18.582;2022-07-17T10:33:16;101493.60;;;20.18
69435;BMP180;56625;54.322;18.582;2022-07-17T10:35:48;101480.80;;;20.50
69435;BMP180;56625;54.322;18.582;2022-07-17T10:38:16;101485.80;;;20.70
69435;BMP180;56625;54.322;18.582;2022-07-17T10:40:45;101480.80;;;21.00
69435;BMP180;56625;54.322;18.582;2022-07-17T10:43:12;101473.60;;;21.20
69435;BMP180;56625;54.322;18.582;2022-07-17T10:45:44;101481.20;;;21.30
69435;BMP180;56625;54.322;18.582;2022-07-17T10:48:18;101473.80;;;21.40
69435;BMP180;56625;54.322;18.582;2022-07-17T10:50:52;101474.00;;;21.50
69435;BMP180;56625;54.322;18.582;2022-07-17T10:53:28;101485.60;;;21.54
69435;BMP180;56625;54.322;18.582;2022-07-17T10:56:04;101475.60;;;21.88
69435;BMP180;56625;54.322;18.582;2022-07-17T10:58:41;101480.20;;;22.10
69435;BMP180;56625;54.322;18.582;2022-07-17T11:01:17;101490.40;;;21.90
69435;BMP180;56625;54.322;18.582;2022-07-17T11:03:53;101501.80;;;21.38
69435;BMP180;56625;54.322;18.582;2022-07-17T11:06:30;101506.00;;;20.90
69435;BMP180;56625;54.322;18.582;2022-07-17T11:09:05;101507.80;;;20.62
69435;BMP180;56625;54.322;18.582;2022-07-17T11:11:51;101505.60;;;20.76
69435;BMP180;56625;54.322;18.582;2022-07-17T11:14:25;101500.80;;;21.12
69435;BMP180;56625;54.322;18.582;2022-07-17T11:16:58;101501.40;;;21.26
69435;BMP180;56625;54.322;18.582;2022-07-17T11:19:37;101504.20;;;21.30
69435;BMP180;56625;54.322;18.582;2022-07-17T11:22:09;101511.60;;;21.30
69435;BMP180;56625;54.322;18.582;2022-07-17T11:24:43;101523.00;;;21.08
69435;BMP180;56625;54.322;18.582;2022-07-17T11:27:27;101513.40;;;20.86
69435;BMP180;56625;54.322;18.582;2022-07-17T11:29:59;101522.60;;;20.80
69435;BMP180;56625;54.322;18.582;2022-07-17T11:32:36;101520.60;;;20.98
69435;BMP180;56625;54.322;18.582;2022-07-17T11:35:16;101512.40;;;21.30
69435;BMP180;56625;54.322;18.582;2022-07-17T11:38:04;101503.60;;;21.70
69435;BMP180;56625;54.322;18.582;2022-07-17T11:40:32;101502.40;;;21.80
69435;BMP180;56625;54.322;18.582;2022-07-17T11:43:02;101497.60;;;22.00
69435;BMP180;56625;54.322;18.582;2022-07-17T11:45:32;101498.60;;;21.90
69435;BMP180;56625;54.322;18.582;2022-07-17T11:48:02;101498.40;;;21.60
69435;BMP180;56625;54.322;18.582;2022-07-17T11:50:30;101505.20;;;21.38
69435;BMP180;56625;54.322;18.582;2022-07-17T11:53:04;101506.00;;;21.46
69435;BMP180;56625;54.322;18.582;2022-07-17T11:55:37;101504.40;;;21.70
69435;BMP180;56625;54.322;18.582;2022-07-17T11:58:05;101501.20;;;21.90
69435;BMP180;56625;54.322;18.582;2022-07-17T12:00:34;101501.00;;;22.10
69435;BMP180;56625;54.322;18.582;2022-07-17T12:03:06;101505.20;;;22.02
69435;BMP180;56625;54.322;18.582;2022-07-17T12:05:36;101494.40;;;22.26
69435;BMP180;56625;54.322;18.582;2022-07-17T12:08:08;101498.80;;;22.40
69435;BMP180;56625;54.322;18.582;2022-07-17T12:10:36;101500.80;;;22.40
69435;BMP180;56625;54.322;18.582;2022-07-17T12:13:06;101499.80;;;22.70
69435;BMP180;56625;54.322;18.582;2022-07-17T12:15:49;101506.60;;;22.90
69435;BMP180;56625;54.322;18.582;2022-07-17T12:18:29;101504.40;;;22.86
69435;BMP180;56625;54.322;18.582;2022-07-17T12:21:03;101506.20;;;22.70
69435;BMP180;56625;54.322;18.582;2022-07-17T12:23:39;101507.40;;;22.60
69435;BMP180;56625;54.322;18.582;2022-07-17T12:26:14;101506.20;;;22.20
69435;BMP180;56625;54.322;18.582;2022-07-17T12:28:48;101510.00;;;22.22
69435;BMP180;56625;54.322;18.582;2022-07-17T12:31:16;101507.40;;;22.20
69435;BMP180;56625;54.322;18.582;2022-07-17T12:33:44;101505.40;;;22.14
69435;BMP180;56625;54.322;18.582;2022-07-17T12:36:12;101500.60;;;22.26
69435;BMP180;56625;54.322;18.582;2022-07-17T12:38:40;101498.00;;;22.26
69435;BMP180;56625;54.322;18.582;2022-07-17T12:41:08;101501.60;;;22.48
69435;BMP180;56625;54.322;18.582;2022-07-17T12:43:37;101501.60;;;22.74
69435;BMP180;56625;54.322;18.582;2022-07-17T12:46:04;101504.00;;;22.60
69435;BMP180;56625;54.322;18.582;2022-07-17T12:48:39;101501.60;;;22.60
69435;BMP180;56625;54.322;18.582;2022-07-17T12:51:12;101497.40;;;22.60
69435;BMP180;56625;54.322;18.582;2022-07-17T12:53:43;101508.80;;;22.60
69435;BMP180;56625;54.322;18.582;2022-07-17T12:56:12;101505.40;;;22.50
69435;BMP180;56625;54.322;18.582;2022-07-17T12:58:40;101504.20;;;22.42
69435;BMP180;56625;54.322;18.582;2022-07-17T13:01:08;101507.20;;;22.50
69435;BMP180;56625;54.322;18.582;2022-07-17T13:03:37;101504.40;;;22.58
69435;BMP180;56625;54.322;18.582;2022-07-17T13:06:05;101501.20;;;22.60
69435;BMP180;56625;54.322;18.582;2022-07-17T13:08:33;101494.00;;;22.62
69435;BMP180;56625;54.322;18.582;2022-07-17T13:11:02;101505.40;;;22.80
69435;BMP180;56625;54.322;18.582;2022-07-17T13:13:38;101510.20;;;22.68
69435;BMP180;56625;54.322;18.582;2022-07-17T13:16:12;101515.00;;;22.58
69435;BMP180;56625;54.322;18.582;2022-07-17T13:18:41;101507.20;;;22.40
69435;BMP180;56625;54.322;18.582;2022-07-17T13:21:09;101513.40;;;22.34
69435;BMP180;56625;54.322;18.582;2022-07-17T13:23:40;101518.40;;;22.20
69435;BMP180;56625;54.322;18.582;2022-07-17T13:26:09;101514.80;;;22.20
69435;BMP180;56625;54.322;18.582;2022-07-17T13:28:45;101520.40;;;22.10
69435;BMP180;56625;54.322;18.582;2022-07-17T13:31:14;101509.20;;;22.10
69435;BMP180;56625;54.322;18.582;2022-07-17T13:33:42;101520.40;;;22.02
69435;BMP180;56625;54.322;18.582;2022-07-17T13:36:10;101523.20;;;21.90
69435;BMP180;56625;54.322;18.582;2022-07-17T13:38:38;101529.40;;;21.90
69435;BMP180;56625;54.322;18.582;2022-07-17T13:41:06;101525.60;;;21.90
69435;BMP180;56625;54.322;18.582;2022-07-17T13:43:34;101519.80;;;21.92
69435;BMP180;56625;54.322;18.582;2022-07-17T13:46:02;101527.00;;;22.00
69435;BMP180;56625;54.322;18.582;2022-07-17T13:48:31;101527.20;;;22.10
69435;BMP180;56625;54.322;18.582;2022-07-17T13:50:58;101528.60;;;22.10
69435;BMP180;56625;54.322;18.582;2022-07-17T13:53:26;101536.80;;;21.94
69435;BMP180;56625;54.322;18.582;2022-07-17T13:55:54;101539.40;;;21.90
69435;BMP180;56625;54.322;18.582;2022-07-17T13:58:23;101542.20;;;21.70